Time;durP1;ratioP1;P1;durP2;ratioP2;P2;SDS_P1;SDS_P2;PMS_P1;PMS_P2;Temp;Humidity;BMP_temperature;BMP_pressure;BME280_temperature;BME280_humidity;BME280_pressure;Samples;Min_cycle;Max_cycle;Signal;HPM_P1;HPM_P2
2023/09/01 00:00:48;;;;;;;;;1.00;1.00;;;;;19.94;74.06;100805.19;5067537;27;45552;-66
2023/09/01 00:03:13;;;;;;;;;1.67;1.00;;;;;19.96;73.86;100805.13;5069227;27;45553;-65
2023/09/01 00:05:39;;;;;;;;;1.00;1.00;;;;;19.95;73.81;100808.72;5064529;28;45406;-63
2023/09/01 00:08:06;;;;;;;;;1.33;1.33;;;;;19.90;73.98;100803.56;5070289;27;45509;-64
2023/09/01 00:10:35;;;;;;;;;2.00;1.00;;;;;19.87;74.02;100801.88;5065367;27;45522;-63
2023/09/01 00:13:01;;;;;;;;;1.67;0.00;;;;;19.89;74.33;100807.16;5068171;27;47047;-67
2023/09/01 00:15:26;;;;;;;;;0.67;0.67;;;;;19.84;74.22;100798.47;5065792;28;45535;-64
2023/09/01 00:17:52;;;;;;;;;1.33;1.33;;;;;19.81;74.46;100780.84;5067536;28;46860;-64
2023/09/01 00:20:18;;;;;;;;;0.67;0.67;;;;;19.89;74.48;100800.03;5073681;27;45651;-63
2023/09/01 00:22:43;;;;;;;;;3.33;1.00;;;;;19.82;74.24;100781.72;5072922;27;46110;-62
2023/09/01 00:25:09;;;;;;;;;1.00;1.00;;;;;19.86;74.90;100797.50;5069021;28;45582;-67
2023/09/01 00:27:35;;;;;;;;;4.00;1.00;;;;;19.80;74.74;100800.34;5071914;28;45539;-63
2023/09/01 00:30:00;;;;;;;;;2.00;1.67;;;;;19.78;75.34;100796.88;5078647;27;45425;-67
2023/09/01 00:32:26;;;;;;;;;3.00;1.33;;;;;19.69;75.18;100782.16;5073920;27;46058;-63
2023/09/01 00:34:58;;;;;;;;;0.67;0.67;;;;;19.73;74.71;100777.56;5077999;27;45344;-65
2023/09/01 00:37:24;;;;;;;;;2.67;1.67;;;;;19.83;74.70;100791.41;5078269;27;45529;-65
2023/09/01 00:39:50;;;;;;;;;2.00;2.00;;;;;19.74;74.67;100779.28;5077767;27;45308;-65
2023/09/01 00:42:16;;;;;;;;;1.00;1.00;;;;;19.87;74.51;100799.22;5077638;27;45331;-64
2023/09/01 00:44:41;;;;;;;;;0.00;0.00;;;;;19.90;74.78;100803.56;5077120;28;45452;-65
2023/09/01 00:47:07;;;;;;;;;3.00;1.00;;;;;19.89;74.98;100804.50;5077880;27;45447;-63
2023/09/01 00:49:35;;;;;;;;;1.00;1.00;;;;;19.89;74.46;100796.50;5078470;27;45226;-63
2023/09/01 00:52:01;;;;;;;;;1.00;1.00;;;;;19.89;74.72;100794.72;5077996;27;46624;-64
2023/09/01 00:54:27;;;;;;;;;1.00;1.00;;;;;19.87;74.72;100804.53;5078013;27;45774;-66
2023/09/01 00:56:54;;;;;;;;;2.00;2.00;;;;;19.84;74.77;100791.34;5077803;28;45414;-67
2023/09/01 00:59:20;;;;;;;;;3.00;2.00;;;;;19.87;75.24;100801.00;5076189;28;45559;-64
2023/09/01 01:01:47;;;;;;;;;1.00;1.00;;;;;19.80;75.35;100800.34;5077139;27;45516;-67
2023/09/01 01:04:14;;;;;;;;;1.00;1.00;;;;;19.74;74.98;100789.94;5076919;28;45588;-62
2023/09/01 01:07:06;;;;;;;;;2.00;1.00;;;;;19.88;75.14;100808.06;5077421;27;45415;-65
2023/09/01 01:10:06;;;;;;;;;1.00;1.00;;;;;19.90;75.08;100801.75;5038746;28;45533;-67
2023/09/01 01:12:55;;;;;;;;;2.67;2.67;;;;;19.82;74.64;100782.56;5066758;28;46151;-63
2023/09/01 01:15:22;;;;;;;;;1.00;1.00;;;;;19.87;74.92;100790.38;5076965;28;45410;-68
2023/09/01 01:17:51;;;;;;;;;1.00;1.00;;;;;19.90;75.00;100798.22;5078133;27;45420;-67
2023/09/01 01:20:33;;;;;;;;;1.00;1.00;;;;;19.90;75.00;100793.78;5077623;28;45519;-64
2023/09/01 01:23:10;;;;;;;;;3.00;1.00;;;;;19.86;75.03;100793.94;5077372;27;45571;-68
2023/09/01 01:25:37;;;;;;;;;2.00;1.00;;;;;19.83;74.84;100788.75;5077216;27;45483;-64
2023/09/01 01:28:09;;;;;;;;;2.00;2.00;;;;;19.83;75.14;100778.13;5077262;27;45402;-63
2023/09/01 01:30:36;;;;;;;;;1.67;1.67;;;;;19.85;74.98;100785.09;5077446;27;45617;-63
2023/09/01 01:33:02;;;;;;;;;1.00;1.00;;;;;19.72;74.69;100753.69;5075318;28;47955;-63
2023/09/01 01:35:49;;;;;;;;;3.00;1.00;;;;;19.90;74.60;100787.59;5076636;27;45506;-63
2023/09/01 01:38:25;;;;;;;;;3.00;1.33;;;;;19.90;74.87;100792.91;5077397;28;45515;-63
2023/09/01 01:40:58;;;;;;;;;1.00;1.00;;;;;19.89;74.53;100794.72;5078643;27;45437;-63
2023/09/01 01:43:27;;;;;;;;;2.67;1.33;;;;;19.84;74.39;100783.38;5077649;27;45421;-64
2023/09/01 01:45:55;;;;;;;;;1.33;1.33;;;;;19.83;74.55;100781.63;5077123;27;45520;-65
2023/09/01 01:48:21;;;;;;;;;1.00;1.00;;;;;19.85;74.46;100784.25;5077243;27;45538;-64
2023/09/01 01:50:47;;;;;;;;;1.00;1.00;;;;;19.79;74.34;100773.81;5110160;27;45604;-65
2023/09/01 01:53:13;;;;;;;;;1.33;1.33;;;;;19.76;74.20;100772.16;5076500;27;46571;-63
2023/09/01 01:55:38;;;;;;;;;1.00;1.00;;;;;19.78;74.06;100770.31;5077585;27;46394;-63
2023/09/01 01:58:05;;;;;;;;;3.00;1.33;;;;;19.85;73.84;100778.94;5077212;28;45429;-64
2023/09/01 02:00:31;;;;;;;;;1.33;1.00;;;;;19.83;73.30;100772.78;5076821;27;45511;-62
2023/09/01 02:02:56;;;;;;;;;1.00;1.00;;;;;19.76;73.12;100777.47;5077958;27;46489;-62
2023/09/01 02:05:22;;;;;;;;;2.33;1.00;;;;;19.74;73.12;100781.94;5077972;28;45765;-63
2023/09/01 02:07:47;;;;;;;;;1.00;1.00;;;;;19.71;73.13;100779.41;5078357;28;45257;-62
2023/09/01 02:10:13;;;;;;;;;1.00;1.00;;;;;19.64;73.14;100778.72;5075681;28;45488;-63
2023/09/01 02:12:39;;;;;;;;;1.00;1.00;;;;;19.60;73.44;100776.22;5073326;28;46255;-63
2023/09/01 02:15:08;;;;;;;;;1.33;1.00;;;;;19.60;73.21;100771.81;5067607;27;45346;-63
2023/09/01 02:17:37;;;;;;;;;1.00;1.00;;;;;19.69;73.02;100776.84;5065345;27;45473;-62
2023/09/01 02:20:19;;;;;;;;;0.33;0.33;;;;;19.69;73.05;100770.63;5059896;28;45516;-63
2023/09/01 02:22:45;;;;;;;;;1.00;1.00;;;;;19.74;73.01;100771.31;5065595;28;47968;-62
2023/09/01 02:25:12;;;;;;;;;1.00;1.00;;;;;19.73;72.68;100779.38;5076298;28;45428;-64
2023/09/01 02:27:42;;;;;;;;;4.00;1.00;;;;;19.72;72.34;100765.22;5070633;27;45428;-63
2023/09/01 02:30:10;;;;;;;;;2.33;1.33;;;;;19.68;72.69;100782.19;5071238;28;45435;-64
2023/09/01 02:32:37;;;;;;;;;3.00;1.00;;;;;19.69;72.27;100782.16;5076936;27;46597;-63
2023/09/01 02:35:05;;;;;;;;;0.67;0.67;;;;;19.65;72.42;100769.84;5077665;27;45394;-67
2023/09/01 02:37:32;;;;;;;;;0.33;0.33;;;;;19.68;72.12;100771.56;5077670;27;45401;-67
2023/09/01 02:39:58;;;;;;;;;1.00;1.00;;;;;19.65;72.67;100775.16;5076804;27;45746;-63
2023/09/01 02:42:23;;;;;;;;;1.00;1.00;;;;;19.61;72.48;100772.66;5075693;28;45930;-64
2023/09/01 02:44:49;;;;;;;;;1.00;1.00;;;;;19.65;72.04;100774.31;5067125;27;45599;-64
2023/09/01 02:47:14;;;;;;;;;3.00;3.00;;;;;19.62;72.33;100764.66;5071991;28;45442;-66
2023/09/01 02:49:40;;;;;;;;;0.67;0.67;;;;;19.57;72.24;100774.53;5080373;27;45548;-63
2023/09/01 02:52:05;;;;;;;;;1.00;1.00;;;;;19.46;72.46;100766.97;5079669;28;46337;-63
2023/09/01 02:54:31;;;;;;;;;1.00;1.00;;;;;19.40;72.43;100753.03;5079959;27;45504;-64
2023/09/01 02:56:57;;;;;;;;;0.33;0.33;;;;;19.32;72.68;100758.59;5079900;27;45434;-63
2023/09/01 02:59:22;;;;;;;;;2.00;1.00;;;;;19.37;72.79;100764.63;5079832;28;45160;-63
2023/09/01 03:01:48;;;;;;;;;2.00;1.00;;;;;19.42;72.57;100770.63;5079332;27;45509;-62
2023/09/01 03:04:14;;;;;;;;;0.67;0.67;;;;;19.50;72.58;100781.00;5080324;27;45424;-64
2023/09/01 03:06:39;;;;;;;;;1.00;1.00;;;;;19.52;72.22;100788.91;5079781;27;45311;-63
2023/09/01 03:09:05;;;;;;;;;2.00;1.00;;;;;19.45;72.28;100765.22;5079837;27;45431;-63
2023/09/01 03:11:31;;;;;;;;;0.00;0.00;;;;;19.51;72.31;100776.56;5079063;27;45599;-64
2023/09/01 03:13:56;;;;;;;;;2.00;1.00;;;;;19.51;72.37;100779.22;5079379;27;45346;-62
2023/09/01 03:16:23;;;;;;;;;1.00;1.00;;;;;19.46;72.55;100790.88;5079090;27;45494;-64
2023/09/01 03:18:49;;;;;;;;;1.33;1.00;;;;;19.39;72.81;100778.72;5079544;27;45530;-63
2023/09/01 03:21:14;;;;;;;;;1.00;1.00;;;;;19.46;72.59;100782.91;5079359;27;45552;-62
2023/09/01 03:23:41;;;;;;;;;0.33;0.33;;;;;19.38;72.70;100769.00;5079140;28;45348;-64
2023/09/01 03:26:06;;;;;;;;;0.33;0.33;;;;;19.42;72.90;100778.59;5080144;27;45359;-63
2023/09/01 03:28:32;;;;;;;;;2.00;1.00;;;;;19.41;72.85;100779.53;5079265;27;45378;-64
2023/09/01 03:30:58;;;;;;;;;0.33;0.33;;;;;19.46;72.38;100774.06;5078997;27;46723;-62
2023/09/01 03:33:24;;;;;;;;;0.00;0.00;;;;;19.44;72.38;100771.44;5078888;27;45409;-65
2023/09/01 03:35:49;;;;;;;;;1.33;0.67;;;;;19.49;72.43;100773.94;5079000;28;45323;-64
2023/09/01 03:38:15;;;;;;;;;0.33;0.00;;;;;19.51;72.63;100776.56;5079575;27;45366;-63
2023/09/01 03:40:41;;;;;;;;;1.00;1.00;;;;;19.46;72.44;100771.41;5078414;27;45537;-63
2023/09/01 03:43:09;;;;;;;;;0.33;0.33;;;;;19.32;72.88;100755.94;5079028;27;45397;-62
2023/09/01 03:45:35;;;;;;;;;0.67;0.67;;;;;19.41;72.57;100770.69;5078629;27;45598;-64
2023/09/01 03:48:01;;;;;;;;;1.00;1.00;;;;;19.45;72.43;100767.00;5078818;27;45492;-64
2023/09/01 03:50:26;;;;;;;;;1.00;1.00;;;;;19.44;72.79;100768.78;5076960;28;45521;-68
2023/09/01 03:52:52;;;;;;;;;1.00;1.00;;;;;19.34;72.78;100746.13;5078437;28;45460;-63
2023/09/01 03:55:17;;;;;;;;;0.33;0.33;;;;;19.34;72.80;100755.88;5078870;28;45416;-63
2023/09/01 03:57:44;;;;;;;;;1.00;1.00;;;;;19.24;73.09;100745.59;5079171;28;45329;-65
2023/09/01 04:00:11;;;;;;;;;2.00;1.00;;;;;19.44;72.78;100774.13;5077796;28;48039;-64
2023/09/01 04:02:37;;;;;;;;;2.00;1.00;;;;;19.44;72.85;100765.28;5078318;27;45483;-65
2023/09/01 04:05:03;;;;;;;;;3.00;1.00;;;;;19.32;72.96;100766.56;5079667;27;45461;-66
2023/09/01 04:07:29;;;;;;;;;1.00;1.00;;;;;19.28;73.35;100771.09;5078624;28;45475;-67
2023/09/01 04:09:58;;;;;;;;;1.00;1.00;;;;;19.21;73.17;100763.41;5078037;27;45429;-66
2023/09/01 04:12:24;;;;;;;;;1.00;1.00;;;;;18.96;73.46;100721.75;5078167;27;45422;-65
2023/09/01 04:14:49;;;;;;;;;2.33;1.00;;;;;19.24;73.23;100755.31;5080061;27;45292;-66
2023/09/01 04:17:15;;;;;;;;;2.00;2.00;;;;;19.25;73.46;100759.72;5079544;27;45369;-63
2023/09/01 04:19:40;;;;;;;;;3.00;2.00;;;;;19.24;73.55;100756.22;5077780;28;45480;-63
2023/09/01 04:22:06;;;;;;;;;4.00;1.00;;;;;19.17;73.72;100740.50;5078808;27;45360;-65
2023/09/01 04:24:33;;;;;;;;;2.00;2.00;;;;;19.16;74.12;100752.06;5078017;27;45305;-64
2023/09/01 04:26:58;;;;;;;;;1.00;1.00;;;;;19.11;74.34;100751.34;5078558;28;45462;-62
2023/09/01 04:29:24;;;;;;;;;2.00;2.00;;;;;19.10;74.01;100739.88;5078978;27;46326;-63
2023/09/01 04:31:50;;;;;;;;;1.33;1.33;;;;;18.95;74.30;100721.78;5077835;28;45428;-65
2023/09/01 04:34:16;;;;;;;;;1.00;1.00;;;;;19.09;74.18;100734.59;5077632;27;45441;-64
2023/09/01 04:36:42;;;;;;;;;3.00;1.00;;;;;19.12;74.12;100758.38;5077986;27;45439;-64
2023/09/01 04:39:09;;;;;;;;;2.33;2.33;;;;;19.07;74.41;100756.75;5077771;28;46650;-65
2023/09/01 04:41:35;;;;;;;;;1.67;1.33;;;;;19.01;74.58;100751.66;5076874;28;45469;-63
2023/09/01 04:44:04;;;;;;;;;2.67;2.00;;;;;18.88;74.87;100742.34;5078156;28;45452;-63
2023/09/01 04:46:29;;;;;;;;;2.00;2.00;;;;;19.03;74.91;100765.75;5078673;27;45400;-63
2023/09/01 04:48:55;;;;;;;;;1.33;1.33;;;;;18.96;74.74;100756.25;5077785;28;46328;-69
2023/09/01 04:51:21;;;;;;;;;1.67;1.67;;;;;18.94;74.70;100750.13;5079038;27;45339;-64
2023/09/01 04:53:48;;;;;;;;;3.00;2.00;;;;;18.85;75.16;100739.78;5079274;27;45369;-63
2023/09/01 04:56:13;;;;;;;;;2.00;2.00;;;;;18.78;74.87;100733.81;5079186;27;45295;-64
2023/09/01 04:58:39;;;;;;;;;2.00;1.00;;;;;18.92;74.97;100748.44;5077745;27;45602;-62
2023/09/01 05:01:05;;;;;;;;;2.00;2.00;;;;;19.01;74.61;100759.63;5077855;28;45397;-64
2023/09/01 05:03:30;;;;;;;;;2.00;1.00;;;;;19.03;74.73;100765.75;5078452;27;45326;-63
2023/09/01 05:05:57;;;;;;;;;1.33;1.33;;;;;18.94;74.99;100758.09;5077724;27;45305;-64
2023/09/01 05:08:22;;;;;;;;;3.67;2.00;;;;;18.86;75.05;100744.16;5077391;27;45533;-63
2023/09/01 05:10:48;;;;;;;;;3.33;2.00;;;;;18.97;75.16;100757.97;5077120;28;45349;-63
2023/09/01 05:13:13;;;;;;;;;2.67;2.67;;;;;19.01;74.79;100761.41;5077587;27;45354;-64
2023/09/01 05:15:39;;;;;;;;;1.67;0.33;;;;;18.98;74.98;100767.69;5077519;27;45286;-62
2023/09/01 05:18:05;;;;;;;;;1.67;1.67;;;;;19.01;75.06;100764.94;5076690;28;45566;-62
2023/09/01 05:20:30;;;;;;;;;3.67;2.00;;;;;19.04;75.13;100767.47;5076896;27;45603;-65
2023/09/01 05:22:55;;;;;;;;;2.00;2.00;;;;;18.96;74.84;100750.03;5076932;27;45451;-63
2023/09/01 05:25:21;;;;;;;;;3.00;2.00;;;;;19.09;75.06;100763.81;5077640;28;45753;-65
2023/09/01 05:27:47;;;;;;;;;2.00;2.00;;;;;19.04;75.41;100766.59;5077427;27;45306;-63
2023/09/01 05:30:13;;;;;;;;;2.00;2.00;;;;;19.01;75.47;100756.97;5077327;27;45627;-61
2023/09/01 05:32:38;;;;;;;;;2.00;2.00;;;;;18.98;75.34;100745.56;5077339;27;45399;-64
2023/09/01 05:35:05;;;;;;;;;3.00;2.00;;;;;19.03;74.84;100736.56;5077138;27;45397;-65
2023/09/01 05:37:31;;;;;;;;;2.33;2.33;;;;;19.10;75.45;100762.88;5076873;27;45376;-65
2023/09/01 05:39:56;;;;;;;;;4.00;3.00;;;;;19.12;75.31;100761.91;5077024;28;45436;-67
2023/09/01 05:42:22;;;;;;;;;2.00;2.00;;;;;19.11;74.97;100754.88;5077406;27;45331;-65
2023/09/01 05:44:47;;;;;;;;;3.00;2.00;;;;;19.23;74.94;100767.72;5077367;27;45492;-67
2023/09/01 05:47:13;;;;;;;;;3.33;2.33;;;;;19.23;74.93;100759.75;5076456;27;46474;-65
2023/09/01 05:49:39;;;;;;;;;1.00;1.00;;;;;19.32;74.68;100776.31;5068043;28;45315;-66
2023/09/01 05:52:05;;;;;;;;;1.67;1.67;;;;;19.29;74.03;100771.97;5061514;27;45571;-66
2023/09/01 05:54:30;;;;;;;;;0.67;0.67;;;;;19.42;73.95;100783.91;5062568;28;45389;-67
2023/09/01 05:56:56;;;;;;;;;2.00;2.00;;;;;19.41;73.92;100791.91;5068850;27;45381;-66
2023/09/01 05:59:21;;;;;;;;;3.33;2.00;;;;;19.37;74.22;100788.53;5064641;27;45461;-63
2023/09/01 06:01:47;;;;;;;;;3.00;3.00;;;;;19.38;74.77;100787.59;5074024;27;45448;-64
2023/09/01 06:04:13;;;;;;;;;3.00;2.00;;;;;19.21;74.84;100763.41;5068791;27;45479;-63
2023/09/01 06:06:39;;;;;;;;;4.67;2.00;;;;;19.32;74.52;100792.25;5065741;28;45288;-63
2023/09/01 06:09:05;;;;;;;;;3.00;2.00;;;;;19.38;74.89;100800.00;5058713;27;45579;-64
2023/09/01 06:11:32;;;;;;;;;2.67;1.33;;;;;19.38;74.67;100792.03;5064176;28;45342;-64
2023/09/01 06:13:58;;;;;;;;;2.00;2.00;;;;;19.34;75.09;100804.56;5076089;27;45416;-63
2023/09/01 06:16:27;;;;;;;;;3.67;1.67;;;;;19.32;74.74;100813.50;5058752;27;46564;-65
2023/09/01 06:18:53;;;;;;;;;5.33;2.33;;;;;19.32;75.25;100809.06;5077083;27;45644;-64
2023/09/01 06:21:19;;;;;;;;;2.33;2.33;;;;;19.24;75.52;100814.63;5069318;27;45461;-65
2023/09/01 06:23:46;;;;;;;;;1.67;1.67;;;;;19.22;75.67;100815.56;5067712;27;46075;-66
2023/09/01 06:26:21;;;;;;;;;1.00;1.00;;;;;19.21;75.45;100812.03;5067652;27;46300;-64
2023/09/01 06:28:48;;;;;;;;;1.67;1.67;;;;;19.28;75.63;100820.69;5058549;27;45529;-64
2023/09/01 06:31:16;;;;;;;;;3.00;2.33;;;;;19.31;75.21;100817.06;5059941;27;45362;-64
2023/09/01 06:33:46;;;;;;;;;2.00;2.00;;;;;19.32;75.65;100819.69;5059471;27;45633;-65
2023/09/01 06:36:13;;;;;;;;;2.00;1.33;;;;;19.36;75.21;100818.66;5059798;27;45456;-65
2023/09/01 06:38:41;;;;;;;;;2.00;2.00;;;;;19.42;74.68;100812.28;5059759;27;45390;-63
2023/09/01 06:41:08;;;;;;;;;2.00;1.33;;;;;19.53;75.02;100823.41;5060751;27;45524;-63
2023/09/01 06:43:38;;;;;;;;;2.00;2.00;;;;;19.60;74.60;100822.28;5060361;27;45248;-63
2023/09/01 06:46:05;;;;;;;;;4.00;3.67;;;;;19.65;74.24;100816.81;5059605;27;45532;-64
2023/09/01 06:48:32;;;;;;;;;2.00;2.00;;;;;19.68;74.16;100816.72;5072691;27;45485;-65
2023/09/01 06:51:05;;;;;;;;;2.00;1.00;;;;;19.59;74.44;100804.59;5096125;27;45457;-64
2023/09/01 06:53:30;;;;;;;;;1.00;1.00;;;;;19.70;74.43;100821.06;5071836;27;45480;-63
2023/09/01 06:55:56;;;;;;;;;2.00;2.00;;;;;19.64;74.33;100807.94;5069048;27;45417;-64
2023/09/01 06:58:22;;;;;;;;;3.00;1.67;;;;;19.69;74.40;100824.66;5067585;28;45309;-64
2023/09/01 07:01:12;;;;;;;;;1.67;1.33;;;;;19.63;74.56;100808.88;5074906;27;45549;-64
2023/09/01 07:03:38;;;;;;;;;2.00;2.00;;;;;19.70;74.94;100823.72;5080211;27;45415;-63
2023/09/01 07:06:04;;;;;;;;;1.67;1.00;;;;;19.71;74.60;100808.66;5078417;27;45568;-64
2023/09/01 07:08:30;;;;;;;;;1.67;1.00;;;;;19.78;74.34;100819.94;5068663;27;45245;-65
2023/09/01 07:11:09;;;;;;;;;1.67;1.00;;;;;19.88;74.05;100824.00;5059738;27;45575;-65
2023/09/01 07:13:38;;;;;;;;;3.00;2.00;;;;;19.88;74.06;100816.91;5070960;27;45539;-64
2023/09/01 07:16:04;;;;;;;;;1.67;1.00;;;;;19.84;74.41;100812.63;5062175;27;46248;-65
2023/09/01 07:18:30;;;;;;;;;3.00;2.00;;;;;19.82;74.47;100816.25;5076876;27;45479;-65
2023/09/01 07:21:00;;;;;;;;;2.00;2.00;;;;;19.77;74.76;100808.44;5070224;27;45558;-66
2023/09/01 07:23:27;;;;;;;;;4.67;2.00;;;;;19.87;74.66;100819.63;5075474;27;45386;-64
2023/09/01 07:25:54;;;;;;;;;1.33;1.33;;;;;19.92;74.26;100823.84;5079208;27;46333;-68
2023/09/01 07:28:20;;;;;;;;;1.00;1.00;;;;;19.94;74.61;100826.44;5077050;27;45402;-65
2023/09/01 07:30:45;;;;;;;;;1.00;1.00;;;;;19.94;74.97;100831.78;5078454;27;45593;-67
2023/09/01 07:33:11;;;;;;;;;2.00;2.00;;;;;19.95;74.97;100829.97;5078285;27;45322;-68
2023/09/01 07:35:37;;;;;;;;;2.00;1.00;;;;;19.97;74.66;100823.69;5073258;27;45524;-68
2023/09/01 07:38:03;;;;;;;;;1.00;1.00;;;;;20.03;74.56;100827.94;5059193;27;45364;-65
2023/09/01 07:40:32;;;;;;;;;1.00;1.00;;;;;20.00;74.59;100828.88;5061164;27;45230;-65
2023/09/01 07:42:59;;;;;;;;;1.00;1.00;;;;;20.01;75.26;100835.09;5061107;27;45524;-65
2023/09/01 07:45:26;;;;;;;;;1.00;1.00;;;;;20.02;74.65;100836.81;5063619;27;47935;-65
2023/09/01 07:47:58;;;;;;;;;0.00;0.00;;;;;20.07;74.65;100824.22;5062522;27;45550;-67
2023/09/01 07:50:24;;;;;;;;;1.00;1.00;;;;;20.15;74.71;100823.97;5067570;27;45670;-63
2023/09/01 07:52:51;;;;;;;;;0.67;0.33;;;;;20.19;74.51;100826.41;5064052;27;45371;-66
2023/09/01 07:55:17;;;;;;;;;1.00;1.00;;;;;20.27;74.05;100827.03;5067572;27;45336;-66
2023/09/01 07:57:42;;;;;;;;;2.00;0.00;;;;;20.28;74.03;100819.91;5063867;27;45347;-66
2023/09/01 08:00:09;;;;;;;;;1.00;0.00;;;;;20.42;73.75;100835.34;5064640;27;45353;-66
2023/09/01 08:02:34;;;;;;;;;0.00;0.00;;;;;20.34;73.39;100817.91;5065552;27;45442;-65
2023/09/01 08:05:05;;;;;;;;;2.00;0.00;;;;;20.48;73.44;100837.81;5062281;27;46235;-65
2023/09/01 08:07:30;;;;;;;;;1.00;1.00;;;;;20.41;73.30;100828.31;5066105;27;45347;-67
2023/09/01 08:09:57;;;;;;;;;2.33;1.00;;;;;20.37;73.69;100843.50;5063708;27;45492;-65
2023/09/01 08:12:25;;;;;;;;;1.00;1.00;;;;;20.28;73.61;100833.19;5067608;27;45499;-66
2023/09/01 08:14:50;;;;;;;;;1.33;1.00;;;;;20.35;73.78;100848.00;5063227;27;45336;-66
2023/09/01 08:17:16;;;;;;;;;2.00;0.00;;;;;20.31;73.53;100827.75;5071790;28;45536;-67
2023/09/01 08:19:46;;;;;;;;;1.00;0.00;;;;;20.42;73.76;100846.00;5078556;27;45341;-65
2023/09/01 08:22:12;;;;;;;;;1.00;1.00;;;;;20.50;73.26;100849.22;5078619;27;45556;-65
2023/09/01 08:24:37;;;;;;;;;1.00;1.00;;;;;20.57;73.18;100850.75;5078238;28;46210;-64
2023/09/01 08:27:03;;;;;;;;;2.00;1.00;;;;;20.60;73.06;100841.81;5078794;28;45385;-65
2023/09/01 08:29:30;;;;;;;;;2.00;1.00;;;;;20.58;72.76;100844.53;5078363;27;45476;-65
2023/09/01 08:31:56;;;;;;;;;2.00;1.00;;;;;20.61;72.75;100851.53;5078971;27;45533;-64
2023/09/01 08:34:21;;;;;;;;;0.00;0.00;;;;;20.54;72.43;100837.56;5077885;28;46327;-65
2023/09/01 08:36:48;;;;;;;;;0.00;0.00;;;;;20.61;72.74;100844.41;5077382;27;45697;-64
2023/09/01 08:39:15;;;;;;;;;4.00;1.00;;;;;20.58;72.81;100836.56;5077651;27;45415;-65
2023/09/01 08:41:41;;;;;;;;;1.00;1.00;;;;;20.62;72.53;100842.63;5078146;27;45501;-66
2023/09/01 08:44:14;;;;;;;;;1.00;1.00;;;;;20.61;72.23;100827.59;5076390;27;46241;-65
2023/09/01 08:46:40;;;;;;;;;1.00;1.00;;;;;20.86;71.77;100830.19;5077599;28;45373;-65
2023/09/01 08:49:08;;;;;;;;;1.00;1.00;;;;;20.86;70.71;100827.50;5077111;27;45559;-66
2023/09/01 08:51:37;;;;;;;;;1.00;1.00;;;;;20.99;69.98;100836.72;5076473;27;45642;-66
2023/09/01 08:54:03;;;;;;;;;1.33;1.00;;;;;21.10;69.68;100860.28;5077127;27;45623;-63
2023/09/01 08:56:30;;;;;;;;;1.00;1.00;;;;;21.19;69.81;100859.91;5076676;28;45555;-64
2023/09/01 08:58:56;;;;;;;;;2.00;2.00;;;;;21.21;69.75;100860.69;5077828;27;45660;-65
2023/09/01 09:01:22;;;;;;;;;2.00;2.00;;;;;21.31;69.07;100867.41;5077204;28;45388;-66
2023/09/01 09:03:48;;;;;;;;;2.00;1.00;;;;;21.15;69.29;100845.84;5064978;27;45425;-65
2023/09/01 09:06:14;;;;;;;;;1.00;1.00;;;;;21.21;69.26;100862.50;5060923;27;45247;-66
2023/09/01 09:08:39;;;;;;;;;1.00;1.00;;;;;21.23;69.39;100869.50;5060141;28;45293;-65
2023/09/01 09:11:13;;;;;;;;;2.00;2.00;;;;;21.25;69.20;100864.13;5060629;27;45547;-66
2023/09/01 09:13:39;;;;;;;;;1.67;1.67;;;;;21.42;68.88;100864.31;5059679;27;45558;-66
2023/09/01 09:16:09;;;;;;;;;2.00;2.00;;;;;21.58;67.89;100857.44;5065956;27;45455;-67
2023/09/01 09:18:36;;;;;;;;;3.00;2.00;;;;;21.46;67.70;100835.78;5077565;27;45496;-65
2023/09/01 09:21:02;;;;;;;;;3.00;2.00;;;;;21.67;66.92;100858.84;5065856;27;45538;-64
2023/09/01 09:23:46;;;;;;;;;2.00;2.00;;;;;21.72;66.76;100862.19;5062267;27;46240;-67
2023/09/01 09:26:12;;;;;;;;;1.00;1.00;;;;;21.96;65.89;100854.06;5061306;27;45317;-65
2023/09/01 09:28:38;;;;;;;;;2.00;1.00;;;;;22.17;65.96;100852.25;5092828;27;45308;-66
2023/09/01 09:31:03;;;;;;;;;3.00;1.33;;;;;22.20;65.20;100852.13;5067604;27;45286;-67
2023/09/01 09:33:33;;;;;;;;;1.00;1.00;;;;;22.35;64.78;100840.81;5064629;27;45447;-67
2023/09/01 09:35:59;;;;;;;;;2.00;2.00;;;;;22.54;64.42;100858.63;5060203;27;45409;-64
2023/09/01 09:38:49;;;;;;;;;2.00;1.00;;;;;22.52;63.84;100855.16;5063468;27;45369;-65
2023/09/01 09:41:15;;;;;;;;;2.00;2.00;;;;;22.47;64.02;100859.84;5060930;27;45400;-66
2023/09/01 09:43:45;;;;;;;;;3.67;3.00;;;;;22.55;63.79;100855.91;5063795;27;46466;-67
2023/09/01 09:46:11;;;;;;;;;3.50;2.75;;;;;22.11;64.04;100760.03;5062355;27;45884;-65
2023/09/01 09:48:38;;;;;;;;;2.00;2.00;;;;;22.68;63.57;100837.50;5076195;27;44854;-67
2023/09/01 09:51:08;;;;;;;;;1.00;1.00;;;;;22.81;62.41;100846.69;5072480;27;45196;-69
2023/09/01 09:53:36;;;;;;;;;1.00;1.00;;;;;23.05;62.06;100854.50;5071036;27;45465;-65
2023/09/01 09:56:33;;;;;;;;;3.00;1.25;;;;;23.23;61.25;100848.25;5080669;27;45410;-67
2023/09/01 09:59:13;;;;;;;;;2.00;2.00;;;;;23.05;61.10;100846.47;5069897;27;45621;-66
2023/09/01 10:01:41;;;;;;;;;2.00;2.00;;;;;23.25;61.19;100850.84;5075097;27;45595;-66
2023/09/01 10:04:07;;;;;;;;;2.00;2.00;;;;;23.44;60.56;100850.78;5068038;27;46109;-65
2023/09/01 10:06:36;;;;;;;;;1.25;1.25;;;;;23.68;59.90;100854.94;5070034;27;45601;-68
2023/09/01 10:09:04;;;;;;;;;3.00;1.50;;;;;23.84;58.49;100851.47;5070033;27;46043;-67
2023/09/01 10:11:30;;;;;;;;;3.00;1.75;;;;;24.08;58.66;100870.75;5070766;27;45482;-67
2023/09/01 10:13:57;;;;;;;;;2.75;2.75;;;;;24.09;57.86;100859.13;5071622;28;45586;-66
2023/09/01 10:16:23;;;;;;;;;2.00;2.00;;;;;23.87;57.58;100865.59;5071167;27;45492;-67
2023/09/01 10:18:50;;;;;;;;;3.00;2.00;;;;;23.79;58.58;100858.88;5076908;27;45209;-67
2023/09/01 10:21:18;;;;;;;;;1.75;1.75;;;;;23.94;58.60;100850.06;5075902;28;45366;-66
2023/09/01 10:23:44;;;;;;;;;3.75;1.50;;;;;24.21;56.98;100845.06;5072100;27;46175;-66
2023/09/01 10:26:18;;;;;;;;;2.00;2.00;;;;;24.39;56.29;100855.75;5075189;27;45400;-66
2023/09/01 10:29:06;;;;;;;;;1.00;1.00;;;;;24.27;57.05;100862.63;5074409;27;45425;-65
2023/09/01 10:31:33;;;;;;;;;3.00;1.00;;;;;24.02;56.66;100863.91;5078442;27;45293;-68
2023/09/01 10:34:13;;;;;;;;;1.00;1.00;;;;;23.79;57.00;100841.03;5076054;28;45364;-66
2023/09/01 10:36:41;;;;;;;;;0.25;0.25;;;;;23.66;57.20;100858.63;5074264;28;45416;-68
2023/09/01 10:39:18;;;;;;;;;6.00;6.00;;;;;23.49;58.05;100855.00;5077253;28;45526;-66
2023/09/01 10:41:50;;;;;;;;;3.75;3.75;;;;;23.39;58.28;100859.03;5077577;27;45559;-66
2023/09/01 10:44:15;;;;;;;;;1.00;1.00;;;;;23.19;59.46;100840.47;5075916;27;45505;-67
2023/09/01 10:46:41;;;;;;;;;2.50;2.00;;;;;23.35;60.73;100872.63;5071906;28;45538;-67
2023/09/01 10:49:08;;;;;;;;;4.00;2.50;;;;;23.36;60.26;100863.69;5073692;27;45294;-66
2023/09/01 10:51:37;;;;;;;;;3.00;3.00;;;;;23.31;61.42;100853.22;5075731;27;45491;-64
2023/09/01 10:54:23;;;;;;;;;2.75;2.75;;;;;23.45;60.94;100865.91;5072588;28;45539;-67
2023/09/01 10:57:02;;;;;;;;;2.00;2.00;;;;;23.68;61.42;100860.28;5065841;28;45472;-65
2023/09/01 10:59:30;;;;;;;;;2.25;2.00;;;;;23.97;60.41;100857.09;5074313;28;45486;-66
2023/09/01 11:01:55;;;;;;;;;1.00;1.00;;;;;24.25;58.12;100853.78;5075510;27;45531;-66
2023/09/01 11:04:21;;;;;;;;;4.00;1.00;;;;;24.45;58.21;100861.63;5074399;27;45479;-67
2023/09/01 11:07:11;;;;;;;;;1.75;1.75;;;;;24.55;57.69;100859.34;5072616;28;45484;-69
2023/09/01 11:09:38;;;;;;;;;6.00;3.00;;;;;24.66;57.06;100856.97;5074435;27;45413;-65
2023/09/01 11:12:06;;;;;;;;;4.00;4.00;;;;;24.69;56.75;100854.09;5076740;28;45248;-64
2023/09/01 11:14:32;;;;;;;;;4.75;2.75;;;;;24.70;56.82;100854.97;5076441;27;46572;-68
2023/09/01 11:17:00;;;;;;;;;3.00;3.00;;;;;24.58;56.98;100855.63;5077502;27;46028;-63
2023/09/01 11:19:26;;;;;;;;;3.50;3.50;;;;;24.46;57.68;100863.38;5078437;27;45483;-65
2023/09/01 11:21:52;;;;;;;;;2.00;2.00;;;;;24.51;56.94;100866.69;5075418;28;45514;-65
2023/09/01 11:24:25;;;;;;;;;1.00;1.00;;;;;24.46;57.95;100849.09;5078324;27;46358;-64
2023/09/01 11:26:52;;;;;;;;;1.00;1.00;;;;;24.46;55.58;100866.06;5075686;27;45445;-65